Time;durP1;ratioP1;P1;durP2;ratioP2;P2;SDS_P1;SDS_P2;PMS_P1;PMS_P2;Temp;Humidity;BMP_temperature;BMP_pressure;BME280_temperature;BME280_humidity;BME280_pressure;Samples;Min_cycle;Max_cycle;Signal;HPM_P1;HPM_P2
2023/07/13 00:01:57;;;;;;;;;;;;;;;28.65;51.04;99691.13;5135260;27;19919;-36
2023/07/13 00:04:26;;;;;;;;;;;;;;;28.69;50.89;99700.28;5134935;27;20335;-37
2023/07/13 00:06:52;;;;;;;;;;;;;;;28.57;51.00;99697.44;5134987;27;19915;-37
2023/07/13 00:09:18;;;;;;;;;;;;;;;28.55;51.42;99694.22;5134901;27;19915;-37
2023/07/13 00:11:44;;;;;;;;;;;;;;;28.42;51.86;99695.97;5134415;27;20248;-37
2023/07/13 00:14:10;;;;;;;;;;;;;;;28.46;51.47;99684.06;5134857;27;19917;-37
2023/07/13 00:16:36;;;;;;;;;;;;;;;28.40;51.54;99685.34;5134652;27;19911;-37
2023/07/13 00:19:01;;;;;;;;;;;;;;;28.35;52.08;99691.00;5134655;27;20451;-37
2023/07/13 00:21:27;;;;;;;;;;;;;;;28.43;51.61;99697.59;5134466;27;20006;-37
2023/07/13 00:23:53;;;;;;;;;;;;;;;28.52;51.26;99690.19;5134666;27;19977;-37
2023/07/13 00:26:18;;;;;;;;;;;;;;;28.47;51.60;99688.38;5134390;27;19911;-37
2023/07/13 00:28:43;;;;;;;;;;;;;;;28.38;51.88;99687.59;5134281;27;19907;-37
2023/07/13 00:31:09;;;;;;;;;;;;;;;28.31;52.49;99678.28;5134167;27;19915;-37
2023/07/13 00:33:35;;;;;;;;;;;;;;;28.28;52.04;99679.72;5134312;27;19971;-37
2023/07/13 00:36:00;;;;;;;;;;;;;;;28.42;52.19;99679.53;5134060;27;19911;-37
2023/07/13 00:38:25;;;;;;;;;;;;;;;28.45;51.47;99681.66;5134427;27;19907;-37
2023/07/13 00:40:51;;;;;;;;;;;;;;;28.48;51.04;99675.50;5134030;27;19908;-37
2023/07/13 00:43:17;;;;;;;;;;;;;;;28.28;51.96;99675.06;5134154;27;20366;-37
2023/07/13 00:45:42;;;;;;;;;;;;;;;28.27;52.38;99672.63;5133997;27;20354;-37
2023/07/13 00:48:08;;;;;;;;;;;;;;;28.04;52.71;99670.06;5134195;27;19907;-37
2023/07/13 00:50:33;;;;;;;;;;;;;;;27.88;53.54;99677.13;5133624;27;19939;-38
2023/07/13 00:52:59;;;;;;;;;;;;;;;28.00;53.35;99677.31;5133638;27;20002;-37
2023/07/13 00:55:24;;;;;;;;;;;;;;;27.97;53.07;99672.50;5133337;27;19915;-38
2023/07/13 00:57:49;;;;;;;;;;;;;;;27.92;52.98;99672.66;5134109;27;19907;-37
2023/07/13 01:00:16;;;;;;;;;;;;;;;27.89;53.16;99673.28;5133758;27;19956;-37
2023/07/13 01:02:44;;;;;;;;;;;;;;;28.04;53.06;99669.28;5133038;27;19911;-37
2023/07/13 01:05:10;;;;;;;;;;;;;;;27.61;53.74;99670.84;5134063;27;19961;-37
2023/07/13 01:07:36;;;;;;;;;;;;;;;27.73;53.89;99663.94;5115025;27;19908;-37
2023/07/13 01:10:02;;;;;;;;;;;;;;;27.45;54.41;99664.22;5133598;27;20358;-37
2023/07/13 01:12:27;;;;;;;;;;;;;;;27.20;56.29;99661.06;5133604;27;19915;-37
2023/07/13 01:15:00;;;;;;;;;;;;;;;27.18;56.40;99651.59;5133558;27;19911;-37
2023/07/13 01:17:25;;;;;;;;;;;;;;;26.89;57.29;99656.44;5133544;27;20389;-37
2023/07/13 01:19:51;;;;;;;;;;;;;;;26.95;56.94;99651.66;5133396;27;19907;-37
2023/07/13 01:22:18;;;;;;;;;;;;;;;27.19;56.27;99655.91;5133588;27;19907;-37
2023/07/13 01:24:44;;;;;;;;;;;;;;;27.02;56.83;99653.94;5133467;27;19994;-37
2023/07/13 01:27:11;;;;;;;;;;;;;;;27.06;56.62;99663.09;5133444;27;19929;-37
2023/07/13 01:29:41;;;;;;;;;;;;;;;27.32;55.72;99660.47;5133321;27;19917;-37
2023/07/13 01:32:12;;;;;;;;;;;;;;;27.50;55.36;99666.81;5133312;27;19918;-37
2023/07/13 01:34:37;;;;;;;;;;;;;;;27.34;55.84;99660.16;5133124;27;19907;-37
2023/07/13 01:37:03;;;;;;;;;;;;;;;27.52;54.44;99661.81;5133195;27;19911;-37
2023/07/13 01:39:29;;;;;;;;;;;;;;;27.37;54.10;99660.34;5133316;27;19908;-37
2023/07/13 01:41:54;;;;;;;;;;;;;;;27.35;53.78;99661.78;5133137;27;19907;-37
2023/07/13 01:44:19;;;;;;;;;;;;;;;27.56;52.95;99664.72;5133218;27;19994;-37
2023/07/13 01:46:44;;;;;;;;;;;;;;;27.46;52.97;99661.16;5133032;27;19984;-37
2023/07/13 01:49:10;;;;;;;;;;;;;;;27.50;53.65;99662.13;5132875;27;19911;-38
2023/07/13 01:51:35;;;;;;;;;;;;;;;27.57;53.21;99666.31;5132876;27;20274;-37
2023/07/13 01:54:01;;;;;;;;;;;;;;;27.57;52.86;99663.59;5133003;27;19907;-37
2023/07/13 01:56:26;;;;;;;;;;;;;;;27.48;52.67;99663.59;5132603;27;19907;-36
2023/07/13 01:58:52;;;;;;;;;;;;;;;27.41;52.99;99668.69;5132805;27;19903;-37
2023/07/13 02:01:17;;;;;;;;;;;;;;;27.25;53.52;99668.34;5132537;27;19907;-36
2023/07/13 02:03:42;;;;;;;;;;;;;;;27.24;53.33;99675.69;5132737;27;20508;-37
2023/07/13 02:06:07;;;;;;;;;;;;;;;27.22;53.04;99677.13;5132502;27;20463;-37
2023/07/13 02:08:33;;;;;;;;;;;;;;;27.20;53.89;99673.91;5132331;27;19907;-37
2023/07/13 02:10:58;;;;;;;;;;;;;;;27.09;54.34;99673.38;5132372;27;19935;-37
2023/07/13 02:13:24;;;;;;;;;;;;;;;27.07;54.35;99681.91;5131924;27;20011;-37
2023/07/13 02:15:50;;;;;;;;;;;;;;;27.04;54.48;99687.19;5131990;27;20005;-36
2023/07/13 02:18:17;;;;;;;;;;;;;;;26.95;54.30;99683.63;5132257;27;19907;-37
2023/07/13 02:20:42;;;;;;;;;;;;;;;26.94;54.00;99685.56;5132270;27;19911;-37
2023/07/13 02:23:07;;;;;;;;;;;;;;;27.23;53.24;99687.75;5132577;27;19912;-36
2023/07/13 02:25:33;;;;;;;;;;;;;;;27.18;53.45;99687.09;5131944;27;20404;-37
2023/07/13 02:27:58;;;;;;;;;;;;;;;27.18;54.56;99687.09;5132105;27;19903;-37
2023/07/13 02:30:24;;;;;;;;;;;;;;;26.88;55.42;99700.44;5132174;27;19943;-37
2023/07/13 02:32:50;;;;;;;;;;;;;;;26.80;55.89;99710.19;5131751;27;19911;-37
2023/07/13 02:35:15;;;;;;;;;;;;;;;26.89;54.47;99702.06;5132199;27;19998;-37
2023/07/13 02:37:40;;;;;;;;;;;;;;;26.88;54.81;99712.19;5132392;27;19994;-37
2023/07/13 02:40:08;;;;;;;;;;;;;;;26.85;54.68;99701.88;5131911;27;20371;-36
2023/07/13 02:42:33;;;;;;;;;;;;;;;27.07;53.43;99701.03;5131766;27;19907;-37
2023/07/13 02:44:59;;;;;;;;;;;;;;;26.91;54.31;99697.88;5131738;27;19989;-36
2023/07/13 02:47:24;;;;;;;;;;;;;;;26.86;54.63;99700.75;5131921;27;19907;-36
2023/07/13 02:49:49;;;;;;;;;;;;;;;26.82;54.93;99702.50;5131750;27;19992;-37
2023/07/13 02:52:15;;;;;;;;;;;;;;;26.90;54.11;99692.72;5131764;27;19958;-38
2023/07/13 02:54:40;;;;;;;;;;;;;;;26.94;53.79;99701.09;5131679;27;19908;-37
2023/07/13 02:57:05;;;;;;;;;;;;;;;26.68;55.05;99707.25;5131833;27;19925;-37
2023/07/13 02:59:31;;;;;;;;;;;;;;;26.19;56.76;99711.69;5131701;27;20426;-37
2023/07/13 03:01:56;;;;;;;;;;;;;;;26.19;57.03;99715.19;5131763;27;20315;-36
2023/07/13 03:04:21;;;;;;;;;;;;;;;26.07;57.16;99706.78;5131670;27;19907;-37
2023/07/13 03:06:47;;;;;;;;;;;;;;;26.07;57.42;99707.56;5131908;27;19907;-38
2023/07/13 03:09:12;;;;;;;;;;;;;;;26.22;57.04;99700.97;5131531;27;19908;-38
2023/07/13 03:11:38;;;;;;;;;;;;;;;26.39;56.82;99705.75;5131297;27;19930;-37
2023/07/13 03:14:03;;;;;;;;;;;;;;;26.60;56.00;99710.69;5131371;27;20360;-35
2023/07/13 03:16:28;;;;;;;;;;;;;;;26.69;55.34;99711.56;5131636;27;19961;-38
2023/07/13 03:18:54;;;;;;;;;;;;;;;26.63;55.06;99707.38;5130971;27;20062;-37
2023/07/13 03:21:19;;;;;;;;;;;;;;;26.83;54.13;99709.56;5131321;27;19935;-38
2023/07/13 03:23:44;;;;;;;;;;;;;;;26.87;53.71;99707.03;5130976;28;19957;-37
2023/07/13 03:26:09;;;;;;;;;;;;;;;26.96;53.15;99701.59;5130091;27;20382;-37
2023/07/13 03:28:35;;;;;;;;;;;;;;;26.75;53.33;99693.97;5131012;28;20292;-38
2023/07/13 03:31:01;;;;;;;;;;;;;;;26.90;52.66;99698.19;5130802;28;19915;-38
2023/07/13 03:33:26;;;;;;;;;;;;;;;27.04;52.84;99695.38;5131099;28;19930;-37
2023/07/13 03:35:52;;;;;;;;;;;;;;;27.01;52.93;99696.00;5131301;28;20274;-36
2023/07/13 03:38:17;;;;;;;;;;;;;;;27.14;51.79;99686.91;5131356;28;19954;-36
2023/07/13 03:40:42;;;;;;;;;;;;;;;27.32;51.45;99695.97;5131571;28;19908;-37
2023/07/13 03:43:07;;;;;;;;;;;;;;;27.37;51.20;99700.50;5131703;28;19907;-38
2023/07/13 03:45:33;;;;;;;;;;;;;;;27.40;50.74;99694.44;5131252;28;20001;-36
2023/07/13 03:47:58;;;;;;;;;;;;;;;27.56;50.60;99692.06;5131328;28;20367;-36
2023/07/13 03:50:23;;;;;;;;;;;;;;;27.75;49.62;99683.56;5131282;27;19965;-36
2023/07/13 03:52:49;;;;;;;;;;;;;;;27.88;48.89;99699.00;5131013;28;20301;-41
2023/07/13 03:55:14;;;;;;;;;;;;;;;28.16;48.65;99693.25;5130455;28;19919;-36
2023/07/13 03:57:39;;;;;;;;;;;;;;;28.18;48.51;99708.22;5131088;28;19907;-36
2023/07/13 04:00:05;;;;;;;;;;;;;;;28.37;48.70;99696.94;5130820;28;19936;-36
2023/07/13 04:02:31;;;;;;;;;;;;;;;28.55;48.87;99705.16;5131138;28;19914;-37
2023/07/13 04:04:56;;;;;;;;;;;;;;;28.49;48.93;99711.91;5131035;28;19907;-37
2023/07/13 04:07:21;;;;;;;;;;;;;;;28.73;48.06;99711.38;5131121;28;20344;-37
2023/07/13 04:09:47;;;;;;;;;;;;;;;28.87;47.22;99709.28;5131445;28;19912;-37
2023/07/13 04:12:12;;;;;;;;;;;;;;;29.14;46.31;99719.03;5130813;28;20010;-36
2023/07/13 04:14:38;;;;;;;;;;;;;;;29.25;46.12;99711.25;5131826;28;20351;-37
2023/07/13 04:17:03;;;;;;;;;;;;;;;29.51;45.38;99711.13;5131936;28;20406;-36
2023/07/13 04:19:28;;;;;;;;;;;;;;;29.59;45.22;99718.47;5131733;28;19911;-37
2023/07/13 04:21:54;;;;;;;;;;;;;;;29.76;45.09;99714.06;5120419;28;19918;-36
2023/07/13 04:24:19;;;;;;;;;;;;;;;30.00;44.92;99724.38;5131345;28;19911;-38
2023/07/13 04:26:45;;;;;;;;;;;;;;;30.42;44.01;99718.09;5131445;28;19907;-37
2023/07/13 04:29:10;;;;;;;;;;;;;;;30.63;43.69;99720.78;5131400;28;19930;-37
2023/07/13 04:31:36;;;;;;;;;;;;;;;30.72;42.90;99719.53;5130416;28;19922;-37
2023/07/13 04:34:04;;;;;;;;;;;;;;;30.89;42.65;99724.03;5101380;28;19916;-40
2023/07/13 04:36:31;;;;;;;;;;;;;;;30.89;42.71;99724.03;5121939;28;19998;-37
2023/07/13 04:38:56;;;;;;;;;;;;;;;31.02;42.28;99729.59;5134323;27;20378;-37
2023/07/13 04:41:22;;;;;;;;;;;;;;;31.24;41.71;99728.34;5133876;27;20298;-38
2023/07/13 04:43:47;;;;;;;;;;;;;;;31.26;42.07;99729.59;5134943;27;19908;-37
2023/07/13 04:46:13;;;;;;;;;;;;;;;31.68;41.24;99732.16;5134680;27;20251;-37
2023/07/13 04:48:39;;;;;;;;;;;;;;;31.65;40.97;99732.06;5133721;27;19918;-36
2023/07/13 04:51:04;;;;;;;;;;;;;;;31.83;40.86;99735.34;5134168;27;20344;-36
2023/07/13 04:53:30;;;;;;;;;;;;;;;32.12;40.23;99737.00;5134222;27;19942;-36
2023/07/13 04:55:55;;;;;;;;;;;;;;;32.22;40.35;99739.28;5134445;27;20383;-37
2023/07/13 04:58:21;;;;;;;;;;;;;;;32.52;39.54;99744.44;5132588;27;20235;-36
2023/07/13 05:00:46;;;;;;;;;;;;;;;32.53;39.31;99735.03;5132286;27;19907;-37
2023/07/13 05:03:12;;;;;;;;;;;;;;;32.81;38.56;99737.78;5132259;27;19920;-36
2023/07/13 05:05:37;;;;;;;;;;;;;;;32.90;38.38;99732.91;5132461;27;19978;-36
2023/07/13 05:08:02;;;;;;;;;;;;;;;33.43;37.18;99742.88;5132006;27;19951;-36
2023/07/13 05:10:28;;;;;;;;;;;;;;;33.79;36.52;99744.50;5131942;27;19919;-37
2023/07/13 05:12:53;;;;;;;;;;;;;;;33.91;35.82;99751.06;5132256;27;19915;-36
2023/07/13 05:15:21;;;;;;;;;;;;;;;34.05;35.54;99754.16;5132487;27;19994;-37
2023/07/13 05:17:47;;;;;;;;;;;;;;;34.22;35.09;99750.19;5134157;27;19914;-37
2023/07/13 05:20:12;;;;;;;;;;;;;;;35.49;33.57;99741.06;5134118;27;19911;-36
2023/07/13 05:22:37;;;;;;;;;;;;;;;35.13;33.84;99740.47;5133784;27;19911;-36
2023/07/13 05:25:06;;;;;;;;;;;;;;;34.88;33.94;99745.56;5133764;27;19907;-37
2023/07/13 05:27:31;;;;;;;;;;;;;;;34.64;33.96;99750.22;5133508;27;19907;-37
2023/07/13 05:29:56;;;;;;;;;;;;;;;34.57;34.23;99752.06;5133532;27;20301;-43
2023/07/13 05:32:22;;;;;;;;;;;;;;;34.90;34.02;99739.66;5133013;27;19911;-37
2023/07/13 05:34:47;;;;;;;;;;;;;;;35.40;33.09;99738.56;5132976;27;19937;-38
2023/07/13 05:37:12;;;;;;;;;;;;;;;35.74;32.69;99741.47;5133201;27;19913;-37
2023/07/13 05:39:38;;;;;;;;;;;;;;;36.63;31.63;99738.19;5133195;27;20343;-37
2023/07/13 05:42:03;;;;;;;;;;;;;;;36.12;32.10;99747.06;5132955;27;20382;-38
2023/07/13 05:44:28;;;;;;;;;;;;;;;35.66;32.67;99745.25;5133248;27;19911;-37
2023/07/13 05:46:56;;;;;;;;;;;;;;;35.81;32.46;99743.50;5133031;27;20477;-37
2023/07/13 05:49:21;;;;;;;;;;;;;;;35.70;32.37;99740.63;5132181;27;20304;-37
2023/07/13 05:51:47;;;;;;;;;;;;;;;35.78;32.10;99735.97;5132706;27;20445;-37
2023/07/13 05:54:12;;;;;;;;;;;;;;;36.13;32.27;99735.63;5132670;27;19907;-37
2023/07/13 05:56:37;;;;;;;;;;;;;;;36.44;32.19;99739.19;5132793;27;20005;-37
2023/07/13 05:59:03;;;;;;;;;;;;;;;36.57;31.70;99734.19;5132893;27;19907;-37
2023/07/13 06:01:29;;;;;;;;;;;;;;;37.59;30.19;99737.47;5132699;27;19938;-37
2023/07/13 06:03:54;;;;;;;;;;;;;;;37.05;31.03;99742.59;5132704;27;19907;-38
2023/07/13 06:06:20;;;;;;;;;;;;;;;36.78;30.80;99739.97;5132822;27;20309;-37
2023/07/13 06:08:45;;;;;;;;;;;;;;;36.98;30.59;99742.53;5132631;27;20342;-36
2023/07/13 06:11:14;;;;;;;;;;;;;;;37.31;30.29;99746.38;5132838;27;19915;-37
2023/07/13 06:13:40;;;;;;;;;;;;;;;37.41;30.42;99748.44;5132642;27;19916;-37
2023/07/13 06:16:05;;;;;;;;;;;;;;;38.48;28.71;99756.56;5132668;27;19964;-37
2023/07/13 06:18:34;;;;;;;;;;;;;;;38.16;29.15;99752.88;5132237;27;19929;-37
2023/07/13 06:21:00;;;;;;;;;;;;;;;38.10;29.65;99750.50;5132284;27;19907;-37
2023/07/13 06:23:25;;;;;;;;;;;;;;;38.15;29.68;99749.31;5132269;27;20385;-36
2023/07/13 06:25:50;;;;;;;;;;;;;;;37.98;29.47;99750.78;5132681;27;19908;-38
2023/07/13 06:28:16;;;;;;;;;;;;;;;38.41;28.89;99739.88;5132479;27;19915;-37
2023/07/13 06:30:41;;;;;;;;;;;;;;;38.63;28.33;99742.72;5132574;27;20006;-37
2023/07/13 06:33:06;;;;;;;;;;;;;;;39.40;27.11;99748.75;5132742;27;20127;-37
2023/07/13 06:35:32;;;;;;;;;;;;;;;38.85;28.69;99741.56;5132299;27;19921;-37
2023/07/13 06:37:57;;;;;;;;;;;;;;;38.57;28.36;99741.53;5132514;27;19915;-37
2023/07/13 06:40:22;;;;;;;;;;;;;;;38.51;28.85;99735.53;5132367;27;20374;-37
2023/07/13 06:42:47;;;;;;;;;;;;;;;38.75;27.76;99727.63;5113728;27;19915;-37
2023/07/13 06:45:13;;;;;;;;;;;;;;;38.84;28.14;99720.53;5131842;27;19936;-38
2023/07/13 06:47:38;;;;;;;;;;;;;;;38.83;27.41;99718.91;5131981;27;20068;-37
2023/07/13 06:50:03;;;;;;;;;;;;;;;39.18;26.41;99727.69;5132086;27;19914;-37
2023/07/13 06:52:29;;;;;;;;;;;;;;;40.40;25.55;99724.59;5132184;27;19980;-37
2023/07/13 06:54:54;;;;;;;;;;;;;;;39.99;26.06;99719.63;5132438;27;20002;-37
2023/07/13 06:57:19;;;;;;;;;;;;;;;39.69;26.83;99720.88;5131775;27;19991;-37
2023/07/13 06:59:45;;;;;;;;;;;;;;;39.62;26.77;99720.88;5131948;27;19923;-37
2023/07/13 07:02:10;;;;;;;;;;;;;;;39.61;26.40;99720.09;5131803;27;19907;-37
2023/07/13 07:04:35;;;;;;;;;;;;;;;39.95;26.29;99722.41;5132193;27;19950;-37
2023/07/13 07:07:01;;;;;;;;;;;;;;;39.92;25.91;99723.19;5132418;27;20375;-37
2023/07/13 07:09:26;;;;;;;;;;;;;;;40.36;25.48;99718.25;5132073;27;20496;-37
2023/07/13 07:11:51;;;;;;;;;;;;;;;41.36;24.55;99723.09;5131295;27;19920;-37
2023/07/13 07:14:17;;;;;;;;;;;;;;;40.64;24.94;99732.00;5131646;27;20386;-37
2023/07/13 07:16:42;;;;;;;;;;;;;;;40.21;25.18;99721.09;5132046;27;19914;-38
2023/07/13 07:19:08;;;;;;;;;;;;;;;40.23;25.27;99724.28;5131682;27;19930;-37
2023/07/13 07:21:33;;;;;;;;;;;;;;;40.36;25.74;99732.97;5131426;27;19964;-38
2023/07/13 07:23:59;;;;;;;;;;;;;;;40.23;25.57;99727.06;5131360;27;19998;-36
2023/07/13 07:26:25;;;;;;;;;;;;;;;40.57;25.48;99726.47;5131196;28;20018;-37
2023/07/13 07:28:50;;;;;;;;;;;;;;;40.79;25.69;99718.00;5130830;28;19917;-37
2023/07/13 07:31:15;;;;;;;;;;;;;;;40.99;25.00;99712.66;5131442;28;20395;-37
2023/07/13 07:33:41;;;;;;;;;;;;;;;41.18;24.54;99712.06;5131382;28;19907;-37
2023/07/13 07:36:06;;;;;;;;;;;;;;;41.34;24.59;99708.78;5131345;28;19919;-37
2023/07/13 07:38:31;;;;;;;;;;;;;;;41.30;25.01;99721.16;5131356;28;19946;-38
2023/07/13 07:40:57;;;;;;;;;;;;;;;41.19;24.14;99701.72;5131364;28;19971;-37
2023/07/13 07:43:22;;;;;;;;;;;;;;;41.22;24.08;99710.09;5131188;28;20371;-37
2023/07/13 07:45:47;;;;;;;;;;;;;;;41.36;24.55;99709.16;5131786;28;19922;-37
2023/07/13 07:48:13;;;;;;;;;;;;;;;41.60;24.55;99709.28;5131272;28;19918;-44
2023/07/13 07:50:38;;;;;;;;;;;;;;;41.77;24.02;99705.50;5131008;28;19912;-44
2023/07/13 07:53:07;;;;;;;;;;;;;;;41.87;24.38;99706.63;5131199;28;19914;-37
2023/07/13 07:55:32;;;;;;;;;;;;;;;41.67;23.74;99709.22;5130975;28;19911;-38
2023/07/13 07:57:58;;;;;;;;;;;;;;;41.42;23.60;99703.91;5131240;28;20304;-38
2023/07/13 08:00:23;;;;;;;;;;;;;;;41.44;23.86;99697.91;5131822;28;20402;-44
2023/07/13 08:02:48;;;;;;;;;;;;;;;41.70;23.48;99699.22;5131108;28;19911;-43
2023/07/13 08:05:14;;;;;;;;;;;;;;;41.97;23.26;99702.88;5131066;28;19911;-42
2023/07/13 08:07:39;;;;;;;;;;;;;;;42.13;23.32;99684.75;5130785;28;20482;-43
2023/07/13 08:10:06;;;;;;;;;;;;;;;41.94;23.43;99691.75;5131076;28;19965;-42
2023/07/13 08:12:35;;;;;;;;;;;;;;;42.12;23.22;99689.53;5133565;27;19916;-43
2023/07/13 08:15:00;;;;;;;;;;;;;;;42.38;23.20;99690.78;5135309;27;19907;-41
2023/07/13 08:17:26;;;;;;;;;;;;;;;42.57;22.31;99683.72;5134733;27;19918;-41
2023/07/13 08:19:51;;;;;;;;;;;;;;;42.23;23.23;99689.38;5134491;27;20357;-46
2023/07/13 08:22:16;;;;;;;;;;;;;;;41.80;23.24;99676.75;5134340;27;20283;-43
2023/07/13 08:24:42;;;;;;;;;;;;;;;41.72;23.70;99686.44;5134512;27;19936;-44
2023/07/13 08:27:08;;;;;;;;;;;;;;;41.51;23.67;99679.06;5134843;27;19914;-42
2023/07/13 08:29:33;;;;;;;;;;;;;;;41.64;23.38;99676.53;5134036;27;19964;-44
2023/07/13 08:31:58;;;;;;;;;;;;;;;41.75;23.63;99668.84;5134338;27;20382;-37
2023/07/13 08:34:23;;;;;;;;;;;;;;;42.12;23.84;99675.56;5134349;27;19911;-37
2023/07/13 08:36:49;;;;;;;;;;;;;;;41.98;23.40;99686.91;5134382;27;19933;-37
2023/07/13 08:39:14;;;;;;;;;;;;;;;42.56;22.57;99684.94;5134009;27;19911;-38
2023/07/13 08:41:39;;;;;;;;;;;;;;;42.51;21.91;99679.03;5134623;27;19908;-37
2023/07/13 08:44:10;;;;;;;;;;;;;;;42.26;22.20;99671.00;5134189;27;19908;-46
2023/07/13 08:46:37;;;;;;;;;;;;;;;42.13;22.74;99674.34;5134200;27;19907;-42
2023/07/13 08:49:12;;;;;;;;;;;;;;;42.39;21.98;99663.59;5134023;27;19907;-45
2023/07/13 08:51:50;;;;;;;;;;;;;;;42.49;22.46;99664.69;5133829;27;20442;-44
2023/07/13 08:54:21;;;;;;;;;;;;;;;42.62;22.10;99665.66;5134167;27;19923;-45
2023/07/13 08:56:49;;;;;;;;;;;;;;;42.34;22.34;99656.47;5133866;27;20409;-42
2023/07/13 08:59:18;;;;;;;;;;;;;;;42.37;22.20;99652.06;5134314;27;19907;-44
2023/07/13 09:01:52;;;;;;;;;;;;;;;42.49;21.75;99656.28;5134271;27;19907;-46
2023/07/13 09:04:22;;;;;;;;;;;;;;;42.32;21.94;99656.09;5134158;27;19938;-43
2023/07/13 09:06:50;;;;;;;;;;;;;;;42.03;22.49;99652.91;5134340;27;19907;-43
2023/07/13 09:09:15;;;;;;;;;;;;;;;41.89;22.81;99645.53;5133788;27;19970;-42
2023/07/13 09:11:45;;;;;;;;;;;;;;;42.52;22.08;99649.88;5133525;27;20450;-42
2023/07/13 09:14:10;;;;;;;;;;;;;;;42.90;21.99;99639.25;5134280;27;19922;-42
2023/07/13 09:16:37;;;;;;;;;;;;;;;42.82;21.56;99637.75;5133585;27;20310;-45
2023/07/13 09:19:05;;;;;;;;;;;;;;;42.70;21.64;99641.94;5133742;27;19942;-42
2023/07/13 09:21:36;;;;;;;;;;;;;;;42.85;21.99;99636.13;5133945;27;20005;-41
2023/07/13 09:24:15;;;;;;;;;;;;;;;42.92;21.73;99631.22;5132739;27;19907;-42
2023/07/13 09:26:41;;;;;;;;;;;;;;;43.09;21.84;99625.69;5133792;27;19918;-43
2023/07/13 09:29:12;;;;;;;;;;;;;;;42.65;21.22;99622.88;5133391;27;19907;-44
2023/07/13 09:31:47;;;;;;;;;;;;;;;42.09;21.78;99616.94;5133854;27;19938;-41
2023/07/13 09:34:14;;;;;;;;;;;;;;;42.14;22.16;99613.69;5133483;27;19911;-42
2023/07/13 09:36:39;;;;;;;;;;;;;;;41.57;22.66;99610.41;5133066;27;19918;-43
2023/07/13 09:39:07;;;;;;;;;;;;;;;41.79;22.04;99598.97;5133080;27;19907;-44
2023/07/13 09:41:51;;;;;;;;;;;;;;;41.44;22.34;99601.00;5133394;27;19994;-42
2023/07/13 09:44:18;;;;;;;;;;;;;;;41.27;22.60;99588.03;5133273;27;19914;-42
2023/07/13 09:47:02;;;;;;;;;;;;;;;40.93;22.74;99586.78;5133225;27;19914;-44
2023/07/13 09:49:28;;;;;;;;;;;;;;;41.30;22.19;99576.84;5133120;27;20327;-43
2023/07/13 09:52:02;;;;;;;;;;;;;;;41.06;22.41;99575.09;5132921;27;19997;-44
2023/07/13 09:54:28;;;;;;;;;;;;;;;40.56;22.45;99571.56;5133121;27;19911;-41
2023/07/13 09:56:54;;;;;;;;;;;;;;;40.72;22.39;99571.00;5133448;27;19976;-43
2023/07/13 09:59:20;;;;;;;;;;;;;;;41.18;21.79;99572.53;5133524;27;19991;-43
2023/07/13 10:01:48;;;;;;;;;;;;;;;41.64;21.61;99562.06;5132995;27;19907;-43
2023/07/13 10:04:16;;;;;;;;;;;;;;;41.85;22.25;99566.59;5132788;27;20354;-43
2023/07/13 10:06:42;;;;;;;;;;;;;;;41.64;23.11;99559.28;5133018;27;19903;-42
2023/07/13 10:09:08;;;;;;;;;;;;;;;41.31;23.06;99561.66;5132854;27;19993;-44
2023/07/13 10:11:34;;;;;;;;;;;;;;;41.10;22.87;99548.72;5132739;27;19951;-42
2023/07/13 10:14:10;;;;;;;;;;;;;;;41.50;22.93;99549.06;5132497;27;19998;-42
2023/07/13 10:16:35;;;;;;;;;;;;;;;41.76;22.46;99549.56;5132585;27;19914;-43
2023/07/13 10:19:11;;;;;;;;;;;;;;;41.61;22.32;99544.13;5132784;27;19912;-43
2023/07/13 10:21:39;;;;;;;;;;;;;;;41.49;23.11;99544.69;5132950;27;20020;-43
2023/07/13 10:24:05;;;;;;;;;;;;;;;41.42;22.67;99545.56;5132554;27;19947;-42
2023/07/13 10:26:32;;;;;;;;;;;;;;;41.25;22.49;99548.59;5132375;27;19907;-46
2023/07/13 10:28:59;;;;;;;;;;;;;;;41.65;22.87;99543.31;5131640;27;19907;-43
2023/07/13 10:31:24;;;;;;;;;;;;;;;42.04;21.03;99539.16;5132168;27;20341;-42
2023/07/13 10:33:50;;;;;;;;;;;;;;;42.33;20.03;99537.50;5132813;27;19971;-41
2023/07/13 10:36:34;;;;;;;;;;;;;;;42.40;20.08;99536.56;5132313;27;19930;-43
2023/07/13 10:39:01;;;;;;;;;;;;;;;42.33;18.91;99531.91;5132152;27;20077;-43
2023/07/13 10:41:29;;;;;;;;;;;;;;;42.83;18.94;99521.06;5132247;27;20414;-43
2023/07/13 10:43:55;;;;;;;;;;;;;;;43.19;18.64;99518.34;5132025;27;19907;-42
2023/07/13 10:46:22;;;;;;;;;;;;;;;43.33;18.84;99511.69;5132416;27;19907;-44
2023/07/13 10:48:52;;;;;;;;;;;;;;;43.56;17.92;99513.56;5132397;27;19907;-45
2023/07/13 10:51:21;;;;;;;;;;;;;;;43.65;18.07;99513.78;5131930;27;19908;-43
2023/07/13 10:53:46;;;;;;;;;;;;;;;43.63;17.70;99507.03;5131685;27;19912;-41
2023/07/13 10:56:18;;;;;;;;;;;;;;;43.79;17.99;99512.66;5131555;27;20020;-44
2023/07/13 10:58:44;;;;;;;;;;;;;;;43.96;17.48;99501.47;5131998;27;19911;-44
2023/07/13 11:01:10;;;;;;;;;;;;;;;43.86;17.89;99504.09;5131958;27;19919;-42
2023/07/13 11:03:45;;;;;;;;;;;;;;;44.20;17.54;99502.13;5132195;27;19907;-43
2023/07/13 11:06:12;;;;;;;;;;;;;;;44.25;17.98;99490.34;5132280;27;19947;-43
2023/07/13 11:08:44;;;;;;;;;;;;;;;44.03;17.01;99492.91;5131767;27;20348;-43
2023/07/13 11:11:35;;;;;;;;;;;;;;;43.73;17.19;99484.38;5131616;27;19958;-43
2023/07/13 11:14:04;;;;;;;;;;;;;;;43.44;17.57;99487.03;5127741;27;20397;-42
2023/07/13 11:16:44;;;;;;;;;;;;;;;43.63;16.82;99484.63;5132519;27;19927;-42
2023/07/13 11:19:15;;;;;;;;;;;;;;;43.66;16.95;99487.34;5131358;27;20394;-43
2023/07/13 11:21:59;;;;;;;;;;;;;;;43.88;17.08;99484.06;5132369;27;19911;-43
2023/07/13 11:24:28;;;;;;;;;;;;;;;43.63;17.39;99481.84;5131909;27;19914;-42
2023/07/13 11:26:55;;;;;;;;;;;;;;;43.62;17.84;99471.84;5131806;28;19915;-44
2023/07/13 11:29:20;;;;;;;;;;;;;;;44.05;17.53;99473.63;5131588;28;19908;-43
2023/07/13 11:31:52;;;;;;;;;;;;;;;44.03;17.37;99468.47;5131803;28;20389;-42
2023/07/13 11:34:23;;;;;;;;;;;;;;;44.22;17.45;99463.22;5131832;28;19917;-43
2023/07/13 11:36:49;;;;;;;;;;;;;;;44.68;16.45;99470.38;5131800;28;19907;-41
2023/07/13 11:39:41;;;;;;;;;;;;;;;44.44;16.73;99466.22;5131717;28;19908;-43
2023/07/13 11:42:12;;;;;;;;;;;;;;;44.40;16.61;99473.94;5128687;28;19941;-44
2023/07/13 11:44:41;;;;;;;;;;;;;;;44.66;16.07;99472.06;5132046;28;20045;-42
2023/07/13 11:47:11;;;;;;;;;;;;;;;44.87;15.77;99474.25;5133878;27;19908;-42
2023/07/13 11:49:48;;;;;;;;;;;;;;;44.83;15.39;99467.19;5135414;27;19907;-44
2023/07/13 11:52:21;;;;;;;;;;;;;;;44.80;15.61;99460.47;5135641;27;19939;-43
2023/07/13 11:54:57;;;;;;;;;;;;;;;44.55;16.48;99465.97;5135695;27;19914;-42
2023/07/13 11:57:28;;;;;;;;;;;;;;;44.59;15.71;99456.22;5135463;27;19907;-43
2023/07/13 11:59:54;;;;;;;;;;;;;;;44.24;16.33;99455.94;5135543;27;19907;-43
2023/07/13 12:02:38;;;;;;;;;;;;;;;44.34;16.57;99444.88;5135083;27;19911;-42
2023/07/13 12:05:05;;;;;;;;;;;;;;;44.67;16.47;99442.81;5135279;27;19954;-42
2023/07/13 12:07:31;;;;;;;;;;;;;;;44.55;16.09;99433.09;5135427;27;19915;-44
2023/07/13 12:10:00;;;;;;;;;;;;;;;43.90;16.43;99431.16;5135300;27;19915;-41
2023/07/13 12:12:29;;;;;;;;;;;;;;;44.21;15.83;99426.00;5135311;27;19955;-42
2023/07/13 12:14:54;;;;;;;;;;;;;;;44.29;16.46;99426.59;5135439;27;19907;-42
2023/07/13 12:17:21;;;;;;;;;;;;;;;43.56;17.45;99418.38;5135120;27;19949;-43
2023/07/13 12:19:47;;;;;;;;;;;;;;;43.56;19.16;99423.19;5134802;27;19915;-42
2023/07/13 12:22:14;;;;;;;;;;;;;;;43.25;19.98;99415.84;5134819;27;19907;-41
2023/07/13 12:24:43;;;;;;;;;;;;;;;43.35;19.72;99405.66;5134674;27;19918;-43
2023/07/13 12:27:17;;;;;;;;;;;;;;;43.40;19.43;99416.34;5134850;27;19907;-43
2023/07/13 12:29:48;;;;;;;;;;;;;;;43.26;19.02;99411.03;5134863;27;19907;-42
2023/07/13 12:32:17;;;;;;;;;;;;;;;43.13;19.51;99403.34;5134835;27;20363;-41
2023/07/13 12:35:13;;;;;;;;;;;;;;;43.25;17.29;99401.09;5134937;27;20368;-43
2023/07/13 12:37:41;;;;;;;;;;;;;;;43.26;18.87;99405.44;5135046;27;19907;-43
2023/07/13 12:40:12;;;;;;;;;;;;;;;43.21;19.27;99397.59;5134941;27;19934;-43
2023/07/13 12:42:39;;;;;;;;;;;;;;;43.10;19.46;99393.00;5134672;27;19907;-43
2023/07/13 12:45:12;;;;;;;;;;;;;;;43.13;19.14;99397.75;5134726;27;19931;-42
2023/07/13 12:47:42;;;;;;;;;;;;;;;42.87;19.30;99379.88;5134893;27;19956;-43